createdAt,value
2018-12-14T06:27:08.406Z,67.23
2018-12-14T06:29:36.607Z,69.03
2018-12-14T06:32:04.792Z,67.00
2018-12-14T06:34:32.944Z,67.17
2018-12-14T06:37:01.316Z,57.27
2018-12-14T06:39:29.569Z,64.47
2018-12-14T06:41:58.027Z,61.03
2018-12-14T06:44:26.198Z,66.43
2018-12-14T06:46:54.331Z,66.97
2018-12-14T06:49:22.613Z,58.27
2018-12-14T06:51:50.868Z,59.07
2018-12-14T06:54:19.009Z,62.97
2018-12-14T06:56:47.231Z,58.73
2018-12-14T06:59:15.379Z,60.17
2018-12-14T07:01:43.591Z,60.17
2018-12-14T07:04:11.848Z,59.43
2018-12-14T07:06:40.079Z,66.37
2018-12-14T07:09:08.231Z,65.27
2018-12-14T07:11:36.452Z,61.60
2018-12-14T07:14:04.608Z,62.43
2018-12-14T07:16:32.912Z,63.17
2018-12-14T07:19:01.143Z,64.43
2018-12-14T07:21:29.283Z,64.57
2018-12-14T07:23:57.451Z,57.40
2018-12-14T07:26:25.887Z,62.97
2018-12-14T07:28:54.201Z,64.60
2018-12-14T07:31:22.712Z,69.17
2018-12-14T07:33:50.889Z,61.23
2018-12-14T07:36:19.053Z,57.03
2018-12-14T07:38:48.270Z,63.07
2018-12-14T07:41:16.657Z,46.13
2018-12-14T07:43:44.787Z,60.87
2018-12-14T07:46:13.099Z,55.67
2018-12-14T07:48:41.240Z,56.13
2018-12-14T07:51:09.464Z,49.67
2018-12-14T07:53:37.670Z,60.33
2018-12-14T07:56:05.839Z,59.20
2018-12-14T07:58:34.040Z,54.27
2018-12-14T08:01:02.166Z,59.70
2018-12-14T08:03:30.318Z,60.03
2018-12-14T08:05:58.556Z,53.47
2018-12-14T08:08:26.712Z,56.03
2018-12-14T08:10:54.999Z,43.50
2018-12-14T08:13:23.294Z,58.20
2018-12-14T08:15:51.443Z,60.57
2018-12-14T08:18:19.705Z,40.60
2018-12-14T08:20:47.900Z,54.87
2018-12-14T08:23:16.087Z,58.63
2018-12-14T08:25:44.212Z,56.10
2018-12-14T08:28:12.352Z,58.63
2018-12-14T08:30:40.496Z,58.93
2018-12-14T08:33:08.693Z,55.90
2018-12-14T08:35:36.923Z,61.13
2018-12-14T08:38:05.131Z,45.03
2018-12-14T08:40:33.334Z,60.20
2018-12-14T08:43:01.595Z,57.13
2018-12-14T08:45:29.748Z,62.40
2018-12-14T08:47:58.031Z,58.80
2018-12-14T08:50:26.196Z,54.10
2018-12-14T08:52:54.379Z,41.90
2018-12-14T08:55:22.646Z,60.87
2018-12-14T08:57:50.867Z,52.90
2018-12-14T09:00:19.171Z,56.37
2018-12-14T09:02:47.372Z,53.87
2018-12-14T09:05:15.503Z,42.40
2018-12-14T09:07:43.717Z,53.13
2018-12-14T09:10:11.976Z,56.97
2018-12-14T09:12:40.119Z,49.80
2018-12-14T09:15:08.376Z,55.83
2018-12-14T09:17:36.571Z,62.23
2018-12-14T09:20:04.936Z,53.33
2018-12-14T09:22:33.076Z,51.33
2018-12-14T09:25:01.274Z,49.90
2018-12-14T09:27:29.491Z,38.07
2018-12-14T09:29:57.656Z,51.83
2018-12-14T09:32:26.027Z,41.33
2018-12-14T09:34:54.298Z,51.20
2018-12-14T09:37:22.515Z,37.10
2018-12-14T09:39:50.654Z,51.97
2018-12-14T09:42:18.849Z,36.67
2018-12-14T09:44:47.005Z,50.67
2018-12-14T09:47:15.169Z,42.40
2018-12-14T09:49:43.312Z,53.83
2018-12-14T09:52:11.509Z,52.60
2018-12-14T09:54:39.671Z,36.63
2018-12-14T09:57:07.871Z,50.37
2018-12-14T09:59:36.055Z,37.33
2018-12-14T10:02:04.348Z,46.70
2018-12-14T10:04:32.535Z,35.43
2018-12-14T10:07:00.735Z,47.30
2018-12-14T10:09:28.931Z,34.17
2018-12-14T10:11:57.204Z,42.43
2018-12-14T10:14:25.335Z,35.53
2018-12-14T10:16:53.664Z,44.10
2018-12-14T10:19:21.940Z,38.00
2018-12-14T10:21:50.245Z,45.47
2018-12-14T10:24:18.469Z,37.07
2018-12-14T10:26:46.670Z,58.20
2018-12-14T10:29:15.026Z,38.50
2018-12-14T10:31:43.163Z,44.57
2018-12-14T10:34:11.314Z,34.53
2018-12-14T10:36:39.499Z,31.57
2018-12-14T10:39:07.775Z,43.73
2018-12-14T10:41:35.971Z,35.30
2018-12-14T10:44:07.378Z,32.47
2018-12-14T10:46:34.492Z,43.83
2018-12-14T10:49:02.810Z,35.50
2018-12-14T10:51:31.311Z,43.70
2018-12-14T10:53:59.507Z,33.07
2018-12-14T10:56:27.796Z,42.87
2018-12-14T10:58:55.955Z,35.60
2018-12-14T11:01:29.531Z,34.00
2018-12-14T11:03:57.731Z,34.27
2018-12-14T11:06:25.981Z,32.83
2018-12-14T11:08:54.120Z,31.70
2018-12-14T11:11:22.421Z,44.77
2018-12-14T11:13:50.615Z,33.23
2018-12-14T11:16:18.773Z,43.03
2018-12-14T11:18:46.906Z,35.83
2018-12-14T11:21:15.191Z,42.53
2018-12-14T11:23:43.322Z,34.93
2018-12-14T11:26:11.462Z,47.70
2018-12-14T11:28:39.591Z,32.63
2018-12-14T11:31:07.727Z,43.87
2018-12-14T11:33:35.872Z,34.43
2018-12-14T11:36:04.056Z,32.97
2018-12-14T11:38:32.239Z,43.53
2018-12-14T11:41:00.483Z,34.73
2018-12-14T11:43:28.691Z,38.33
2018-12-14T11:45:57.455Z,30.43
2018-12-14T11:48:25.615Z,33.73
2018-12-14T11:50:53.807Z,33.60
2018-12-14T11:53:22.051Z,29.60
2018-12-14T11:55:50.304Z,31.80
2018-12-14T11:58:18.531Z,27.70
2018-12-14T12:00:46.884Z,24.50
2018-12-14T12:03:15.028Z,36.00
2018-12-14T12:05:43.242Z,28.43
2018-12-14T12:08:13.221Z,29.00
2018-12-14T12:10:41.548Z,29.00
2018-12-14T12:13:09.678Z,35.23
2018-12-14T12:15:37.963Z,36.30
2018-12-14T12:18:06.099Z,32.60
2018-12-14T12:20:34.323Z,31.23
2018-12-14T12:23:02.452Z,33.47
2018-12-14T12:25:30.619Z,44.10
2018-12-14T12:27:58.875Z,32.70
2018-12-14T12:30:27.159Z,33.23
2018-12-14T12:32:55.335Z,42.23
2018-12-14T12:35:23.540Z,33.43
2018-12-14T12:37:51.747Z,42.43
2018-12-14T12:40:19.979Z,30.37
2018-12-14T12:42:48.151Z,35.27
2018-12-14T12:45:16.412Z,32.63
2018-12-14T12:47:44.539Z,41.60
2018-12-14T12:50:12.879Z,32.50
2018-12-14T12:52:41.076Z,29.83
2018-12-14T12:55:09.235Z,30.67
2018-12-14T12:57:37.443Z,39.20
2018-12-14T13:00:06.251Z,28.93
2018-12-14T13:02:34.392Z,38.53
2018-12-14T13:05:02.619Z,30.37
2018-12-14T13:07:30.771Z,42.40
2018-12-14T13:09:58.965Z,33.93
2018-12-14T13:12:27.317Z,45.33
2018-12-14T13:14:55.523Z,29.73
2018-12-14T13:17:23.663Z,44.07
2018-12-14T13:19:51.788Z,30.77
2018-12-14T13:22:20.027Z,39.90
2018-12-14T13:24:48.224Z,32.53
2018-12-14T13:27:20.296Z,37.97
2018-12-14T13:29:46.655Z,35.47
2018-12-14T13:32:14.935Z,36.77
2018-12-14T13:34:43.070Z,31.37
2018-12-14T13:37:11.196Z,38.47
2018-12-14T13:39:39.407Z,30.57
2018-12-14T13:42:07.546Z,41.93
2018-12-14T13:44:35.938Z,31.10
2018-12-14T13:47:04.301Z,41.17
2018-12-14T13:49:32.455Z,38.13
2018-12-14T13:52:00.652Z,39.00
2018-12-14T13:54:28.815Z,38.33
2018-12-14T13:56:57.051Z,39.00
2018-12-14T13:59:25.240Z,41.23
2018-12-14T14:01:53.366Z,44.30
2018-12-14T14:04:21.540Z,38.90
2018-12-14T14:06:49.746Z,33.47
2018-12-14T14:09:17.889Z,45.77
2018-12-14T14:11:46.108Z,44.00
2018-12-14T14:14:14.251Z,45.40
2018-12-14T14:16:42.468Z,41.80
2018-12-14T14:19:10.631Z,35.00
2018-12-14T14:21:38.852Z,40.77
2018-12-14T14:24:07.084Z,32.97
2018-12-14T14:26:35.243Z,43.83
2018-12-14T14:29:03.437Z,31.33
2018-12-14T14:31:31.571Z,42.23
2018-12-14T14:33:59.838Z,44.50
2018-12-14T14:36:27.980Z,39.83
2018-12-14T14:38:56.258Z,34.17
2018-12-14T14:41:24.491Z,42.53
2018-12-14T14:43:52.690Z,36.30
2018-12-14T14:46:20.931Z,43.50
2018-12-14T14:48:49.209Z,44.17
2018-12-14T14:51:17.662Z,44.07
2018-12-14T14:53:45.819Z,39.13
2018-12-14T14:56:13.979Z,35.70
2018-12-14T14:58:42.164Z,38.73
2018-12-14T15:01:10.367Z,30.17
2018-12-14T15:03:38.620Z,40.03
2018-12-14T15:06:06.779Z,31.73
2018-12-14T15:08:35.047Z,38.50
2018-12-14T15:11:03.276Z,35.17
2018-12-14T15:13:31.490Z,41.10
2018-12-14T15:15:59.751Z,40.27
2018-12-14T15:18:27.911Z,35.60
2018-12-14T15:20:56.055Z,40.93
2018-12-14T15:23:24.398Z,41.63
2018-12-14T15:25:52.632Z,38.60
2018-12-14T15:28:20.835Z,44.70
2018-12-14T15:30:49.032Z,41.43
2018-12-14T15:33:17.195Z,52.97
2018-12-14T15:35:45.492Z,40.37
2018-12-14T15:38:13.759Z,61.20
2018-12-14T15:40:41.985Z,44.63
2018-12-14T15:43:10.183Z,59.70
2018-12-14T15:45:38.481Z,47.37
2018-12-14T15:48:06.961Z,57.67
2018-12-14T15:50:35.233Z,45.87
2018-12-14T15:53:03.360Z,59.97
2018-12-14T15:55:31.596Z,55.23
2018-12-14T15:57:59.813Z,59.87
2018-12-14T16:00:28.073Z,44.73
2018-12-14T16:02:56.431Z,54.07
2018-12-14T16:05:24.620Z,56.20
2018-12-14T16:07:52.747Z,60.93
2018-12-14T16:10:20.998Z,46.23
2018-12-14T16:12:49.752Z,59.60
2018-12-14T16:15:20.406Z,68.17
2018-12-14T16:17:48.195Z,47.07
2018-12-14T16:20:16.387Z,61.80
2018-12-14T16:22:44.752Z,59.13
2018-12-14T16:25:13.063Z,51.87
2018-12-14T16:27:41.417Z,63.13
2018-12-14T16:30:10.633Z,67.17
2018-12-14T16:32:38.803Z,64.27
2018-12-14T16:35:07.175Z,66.80
2018-12-14T16:37:35.447Z,53.23
2018-12-14T16:40:04.175Z,63.10
2018-12-14T16:42:32.540Z,61.60
2018-12-14T16:45:00.671Z,63.97
2018-12-14T16:47:29.031Z,73.90
2018-12-14T16:49:57.215Z,68.17
2018-12-14T16:52:25.443Z,73.80
2018-12-14T16:54:53.691Z,66.37
2018-12-14T16:57:21.923Z,47.23
2018-12-14T16:59:50.236Z,68.93
2018-12-14T17:02:18.629Z,66.97
2018-12-14T17:04:46.781Z,51.53
2018-12-14T17:07:15.035Z,63.40
2018-12-14T17:09:43.480Z,63.27
2018-12-14T17:12:11.731Z,49.00
2018-12-14T17:14:39.956Z,67.00
2018-12-14T17:17:08.180Z,47.33
2018-12-14T17:19:36.436Z,68.40
2018-12-14T17:22:04.631Z,53.23
2018-12-14T17:24:32.841Z,62.33
2018-12-14T17:27:01.138Z,59.50
2018-12-14T17:29:29.316Z,64.47
2018-12-14T17:31:57.487Z,50.20
2018-12-14T17:34:25.762Z,67.97
2018-12-14T17:36:53.984Z,64.07
2018-12-14T17:39:22.467Z,66.47
2018-12-14T17:41:50.694Z,72.33
2018-12-14T17:44:18.915Z,69.83
2018-12-14T17:46:47.465Z,50.87
2018-12-14T17:49:15.695Z,66.80
2018-12-14T17:51:44.115Z,63.77
2018-12-14T17:54:12.363Z,69.07
2018-12-14T17:56:40.652Z,68.20
2018-12-14T17:59:08.836Z,51.17
2018-12-14T18:01:37.261Z,65.77
2018-12-14T18:04:05.535Z,65.20
2018-12-14T18:06:33.741Z,51.70
2018-12-14T18:09:01.956Z,59.57
2018-12-14T18:11:30.214Z,70.33
2018-12-14T18:13:58.402Z,64.03
2018-12-14T18:16:26.783Z,55.70
2018-12-14T18:18:55.003Z,67.57
2018-12-14T18:21:23.214Z,52.63
2018-12-14T18:23:51.406Z,71.13
2018-12-14T18:26:19.649Z,63.17
2018-12-14T18:28:47.847Z,64.37
2018-12-14T18:31:16.080Z,60.73
2018-12-14T18:33:44.319Z,46.80
2018-12-14T18:36:12.569Z,62.30
2018-12-14T18:38:40.775Z,62.47
2018-12-14T18:41:08.930Z,59.77
2018-12-14T18:43:37.118Z,64.00
2018-12-14T18:46:05.403Z,63.53
2018-12-14T18:48:33.568Z,64.90
2018-12-14T18:51:01.833Z,67.83
2018-12-14T18:53:29.998Z,62.97
2018-12-14T18:55:58.278Z,59.30
2018-12-14T18:58:26.476Z,56.77
2018-12-14T19:00:54.766Z,63.03
2018-12-14T19:03:23.004Z,61.70
2018-12-14T19:05:51.302Z,57.53
2018-12-14T19:08:19.527Z,60.70
2018-12-14T19:10:47.759Z,59.27
2018-12-14T19:13:15.947Z,58.57
2018-12-14T19:15:44.102Z,62.17
2018-12-14T19:18:12.347Z,57.00
2018-12-14T19:20:40.610Z,53.70
2018-12-14T19:23:08.842Z,56.27
2018-12-14T19:28:11.692Z,54.97
2018-12-14T19:30:39.854Z,57.63
2018-12-14T19:33:08.057Z,58.53
2018-12-14T19:35:36.405Z,54.03
2018-12-14T19:38:04.579Z,43.73
2018-12-14T19:40:32.759Z,52.10
2018-12-14T19:43:00.999Z,41.97
2018-12-14T19:45:29.207Z,49.67
2018-12-14T19:47:57.391Z,52.87
2018-12-14T19:50:25.588Z,54.03
2018-12-14T19:52:53.758Z,47.03
2018-12-14T19:55:22.127Z,49.77
2018-12-14T19:57:50.406Z,40.03
2018-12-14T20:00:18.727Z,51.03
2018-12-14T20:02:47.005Z,45.67
2018-12-14T20:05:15.243Z,47.47
2018-12-14T20:07:43.620Z,53.47
2018-12-14T20:10:11.967Z,50.33
2018-12-14T20:12:40.115Z,43.37
2018-12-14T20:15:08.396Z,46.87
2018-12-14T20:17:36.572Z,51.30
2018-12-14T20:20:05.452Z,50.77
2018-12-14T20:22:33.736Z,52.23
2018-12-14T20:25:01.973Z,41.60
2018-12-14T20:27:30.244Z,48.67
2018-12-14T20:29:58.558Z,49.70
2018-12-14T20:32:26.798Z,49.60
2018-12-14T20:34:55.215Z,48.27
2018-12-14T20:37:23.375Z,48.47
2018-12-14T20:39:51.619Z,45.63
2018-12-14T20:42:19.884Z,49.47
2018-12-14T20:44:48.214Z,44.10
2018-12-14T20:47:16.500Z,36.47
2018-12-14T20:49:44.747Z,53.37
2018-12-14T20:52:12.926Z,36.63
2018-12-14T20:54:41.163Z,49.13
2018-12-14T20:57:09.340Z,47.43
2018-12-14T20:59:37.511Z,36.57
2018-12-14T21:02:05.824Z,50.87
2018-12-14T21:04:34.096Z,46.97
2018-12-14T21:07:02.400Z,50.13
2018-12-14T21:09:30.673Z,50.30
2018-12-14T21:11:58.915Z,46.77
2018-12-14T21:14:27.404Z,44.93
2018-12-14T21:16:55.821Z,46.10
2018-12-14T21:19:24.208Z,47.20
2018-12-14T21:21:52.465Z,36.07
2018-12-14T21:24:20.801Z,49.75
2018-12-14T21:26:49.010Z,36.53
2018-12-14T21:29:17.176Z,46.90
2018-12-14T21:31:45.399Z,34.83
2018-12-14T21:34:13.628Z,44.40
2018-12-14T21:36:41.865Z,47.60
2018-12-14T21:39:10.075Z,45.77
2018-12-14T21:41:38.223Z,47.07
2018-12-14T21:44:06.425Z,47.47
2018-12-14T21:46:34.702Z,40.73
2018-12-14T21:49:02.905Z,40.70
2018-12-14T21:51:31.072Z,40.63
2018-12-14T21:53:59.228Z,38.10
2018-12-14T21:56:27.498Z,35.53
2018-12-14T21:58:55.760Z,36.47
